Time;durP1;ratioP1;P1;durP2;ratioP2;P2;SDS_P1;SDS_P2;PMS_P1;PMS_P2;Temp;Humidity;BMP_temperature;BMP_pressure;BME280_temperature;BME280_humidity;BME280_pressure;Samples;Min_cycle;Max_cycle;Signal;HPM_P1;HPM_P2
2023/10/24 00:01:52;;;;;;;5.30;3.40;;;;;;;;;;5016926;28;20541;-70
2023/10/24 00:04:18;;;;;;;8.73;4.05;;;;;;;;;;5017169;28;20021;-70
2023/10/24 00:06:43;;;;;;;6.63;4.82;;;;;;;;;;5016619;28;20371;-70
2023/10/24 00:09:08;;;;;;;8.32;4.18;;;;;;;;;;5016879;28;20529;-70
2023/10/24 00:11:33;;;;;;;4.35;2.72;;;;;;;;;;5017085;28;20029;-70
2023/10/24 00:13:59;;;;;;;9.65;4.18;;;;;;;;;;5017314;28;20049;-70
2023/10/24 00:16:24;;;;;;;8.20;3.47;;;;;;;;;;5016690;28;20115;-70
2023/10/24 00:18:49;;;;;;;8.40;3.72;;;;;;;;;;5016179;28;20017;-70
2023/10/24 00:21:14;;;;;;;7.28;3.63;;;;;;;;;;5016645;28;20022;-70
2023/10/24 00:23:40;;;;;;;5.63;2.88;;;;;;;;;;5017146;28;20030;-70
2023/10/24 00:26:06;;;;;;;5.72;3.28;;;;;;;;;;4999297;28;20021;-70
2023/10/24 00:28:31;;;;;;;8.82;4.53;;;;;;;;;;4999182;28;20550;-70
2023/10/24 00:30:56;;;;;;;6.15;3.65;;;;;;;;;;5017025;28;20061;-70
2023/10/24 00:33:21;;;;;;;6.70;3.17;;;;;;;;;;5016358;28;20033;-70
2023/10/24 00:35:47;;;;;;;11.10;4.63;;;;;;;;;;5016240;28;20359;-70
2023/10/24 00:38:12;;;;;;;6.75;3.35;;;;;;;;;;5016582;28;20022;-70
2023/10/24 00:40:37;;;;;;;10.52;3.00;;;;;;;;;;5016754;28;20108;-70
2023/10/24 00:43:04;;;;;;;6.70;3.08;;;;;;;;;;5016815;28;20033;-71
2023/10/24 00:45:30;;;;;;;6.53;3.38;;;;;;;;;;5015761;28;20026;-70
2023/10/24 00:47:55;;;;;;;6.25;2.90;;;;;;;;;;4998725;28;20025;-70
2023/10/24 00:50:21;;;;;;;6.18;3.80;;;;;;;;;;5016367;28;20383;-70
2023/10/24 00:52:46;;;;;;;4.00;2.75;;;;;;;;;;5016210;28;20030;-70
2023/10/24 00:55:13;;;;;;;8.13;2.92;;;;;;;;;;4998606;28;20056;-71
2023/10/24 00:57:38;;;;;;;5.80;3.90;;;;;;;;;;4998686;28;20022;-71
2023/10/24 01:00:05;;;;;;;9.73;2.85;;;;;;;;;;5015285;28;20026;-70
2023/10/24 01:02:30;;;;;;;7.28;2.47;;;;;;;;;;4998500;28;20018;-70
2023/10/24 01:04:58;;;;;;;8.40;2.85;;;;;;;;;;5015988;28;20040;-70
2023/10/24 01:07:24;;;;;;;5.65;2.38;;;;;;;;;;4999141;28;20360;-70
2023/10/24 01:09:49;;;;;;;3.28;2.03;;;;;;;;;;5016088;28;20029;-70
2023/10/24 01:12:14;;;;;;;4.60;2.03;;;;;;;;;;5015995;28;20029;-70
2023/10/24 01:14:39;;;;;;;4.00;2.30;;;;;;;;;;5012346;28;20025;-70
2023/10/24 01:17:12;;;;;;;4.30;2.42;;;;;;;;;;5005823;28;20030;-70
2023/10/24 01:19:37;;;;;;;5.25;2.28;;;;;;;;;;5009880;28;20041;-70
2023/10/24 01:22:03;;;;;;;6.65;1.98;;;;;;;;;;5012636;28;20018;-70
2023/10/24 01:24:28;;;;;;;6.13;2.53;;;;;;;;;;5011355;28;20068;-70
2023/10/24 01:26:56;;;;;;;5.50;2.13;;;;;;;;;;4997800;28;20487;-70
2023/10/24 01:29:21;;;;;;;5.50;2.75;;;;;;;;;;5015228;28;20033;-71
2023/10/24 01:31:47;;;;;;;8.57;2.15;;;;;;;;;;5014793;28;20033;-70
2023/10/24 01:34:12;;;;;;;4.55;2.28;;;;;;;;;;5015213;28;20041;-70
2023/10/24 01:36:37;;;;;;;3.15;1.88;;;;;;;;;;4997608;28;20036;-70
2023/10/24 01:39:03;;;;;;;10.43;3.20;;;;;;;;;;5013708;28;20022;-71
2023/10/24 01:41:28;;;;;;;5.95;3.28;;;;;;;;;;5015193;28;20406;-70
2023/10/24 01:43:55;;;;;;;2.80;2.20;;;;;;;;;;5015250;28;20061;-70
2023/10/24 01:46:20;;;;;;;2.88;1.85;;;;;;;;;;5015126;28;20045;-70
2023/10/24 01:48:46;;;;;;;3.60;2.25;;;;;;;;;;5014601;28;20440;-70
2023/10/24 01:51:12;;;;;;;7.28;3.00;;;;;;;;;;5015087;28;20387;-70
2023/10/24 01:53:37;;;;;;;4.55;2.72;;;;;;;;;;5014903;28;20018;-70
2023/10/24 01:56:02;;;;;;;7.03;3.03;;;;;;;;;;4997274;28;20030;-70
2023/10/24 01:58:27;;;;;;;5.80;3.70;;;;;;;;;;4997207;28;20492;-70
2023/10/24 02:00:53;;;;;;;8.48;4.13;;;;;;;;;;4997638;28;20433;-70
2023/10/24 02:03:18;;;;;;;6.15;2.90;;;;;;;;;;5015049;28;20026;-70
2023/10/24 02:05:43;;;;;;;6.45;3.00;;;;;;;;;;5014734;28;20029;-70
2023/10/24 02:08:09;;;;;;;6.22;3.25;;;;;;;;;;5014957;28;20021;-70
2023/10/24 02:10:34;;;;;;;4.70;2.47;;;;;;;;;;5014989;28;20478;-70
2023/10/24 02:12:59;;;;;;;5.18;2.40;;;;;;;;;;5013551;28;20029;-70
2023/10/24 02:15:25;;;;;;;8.20;3.15;;;;;;;;;;5014632;28;20022;-70
2023/10/24 02:17:51;;;;;;;7.00;2.78;;;;;;;;;;5014650;28;20493;-70
2023/10/24 02:20:16;;;;;;;5.80;2.60;;;;;;;;;;4996974;28;20037;-70
2023/10/24 02:22:41;;;;;;;8.70;3.05;;;;;;;;;;5014477;28;20060;-70
2023/10/24 02:25:08;;;;;;;12.10;3.13;;;;;;;;;;5014276;28;20037;-70
2023/10/24 02:27:35;;;;;;;4.35;2.80;;;;;;;;;;4996689;28;20025;-70
2023/10/24 02:30:01;;;;;;;7.40;3.22;;;;;;;;;;5014423;28;20501;-70
2023/10/24 02:32:26;;;;;;;7.88;2.80;;;;;;;;;;5014686;28;20030;-70
2023/10/24 02:34:51;;;;;;;6.47;3.13;;;;;;;;;;5014505;28;20026;-71
2023/10/24 02:37:16;;;;;;;9.30;3.40;;;;;;;;;;5014792;28;20092;-70
2023/10/24 02:39:42;;;;;;;6.55;3.80;;;;;;;;;;4996699;28;20022;-70
2023/10/24 02:42:07;;;;;;;6.82;3.13;;;;;;;;;;5013789;28;20026;-70
2023/10/24 02:44:33;;;;;;;7.85;3.65;;;;;;;;;;5014116;28;20118;-70
2023/10/24 02:46:58;;;;;;;12.55;4.18;;;;;;;;;;5014613;28;20033;-70
2023/10/24 02:49:23;;;;;;;6.95;3.85;;;;;;;;;;5014094;28;20076;-70
2023/10/24 02:51:48;;;;;;;5.72;3.63;;;;;;;;;;4996527;28;20505;-70
2023/10/24 02:54:14;;;;;;;10.98;4.03;;;;;;;;;;5014063;28;20021;-70
2023/10/24 02:56:39;;;;;;;12.75;5.35;;;;;;;;;;5013921;28;20442;-70
2023/10/24 02:59:05;;;;;;;9.30;4.15;;;;;;;;;;5014294;28;20026;-70
2023/10/24 03:01:30;;;;;;;7.13;4.28;;;;;;;;;;5014038;28;20495;-70
2023/10/24 03:03:56;;;;;;;10.10;4.35;;;;;;;;;;5011078;28;20065;-71
2023/10/24 03:06:21;;;;;;;9.57;4.63;;;;;;;;;;5012764;28;20041;-71
2023/10/24 03:08:48;;;;;;;8.27;4.47;;;;;;;;;;5013446;28;20034;-70
2023/10/24 03:11:21;;;;;;;10.27;4.53;;;;;;;;;;4995602;28;20022;-71
2023/10/24 03:13:46;;;;;;;8.45;4.65;;;;;;;;;;4995499;28;20037;-71
2023/10/24 03:16:11;;;;;;;10.48;4.28;;;;;;;;;;5013468;28;20475;-70
2023/10/24 03:18:36;;;;;;;11.75;5.38;;;;;;;;;;5013504;28;20030;-71
2023/10/24 03:21:04;;;;;;;11.63;5.47;;;;;;;;;;5013358;28;20100;-71
2023/10/24 03:23:29;;;;;;;9.90;6.00;;;;;;;;;;4981910;28;20513;-71
2023/10/24 03:25:54;;;;;;;10.77;4.70;;;;;;;;;;5010163;28;20034;-70
2023/10/24 03:28:20;;;;;;;11.63;5.10;;;;;;;;;;5017652;28;20033;-71
2023/10/24 03:30:48;;;;;;;8.13;4.53;;;;;;;;;;4999960;28;20104;-70
2023/10/24 03:33:13;;;;;;;11.20;5.45;;;;;;;;;;5015668;28;20022;-71
2023/10/24 03:35:38;;;;;;;11.93;4.32;;;;;;;;;;5016880;28;20536;-71
2023/10/24 03:38:04;;;;;;;7.40;4.50;;;;;;;;;;5017509;28;20126;-71
2023/10/24 03:40:29;;;;;;;6.72;3.75;;;;;;;;;;5017318;28;20075;-70
2023/10/24 03:42:54;;;;;;;10.82;4.53;;;;;;;;;;5017427;28;20030;-70
2023/10/24 03:45:20;;;;;;;13.05;5.07;;;;;;;;;;5017362;28;20029;-70
2023/10/24 03:47:46;;;;;;;6.22;3.92;;;;;;;;;;4999254;28;20093;-71
2023/10/24 03:50:12;;;;;;;12.90;5.35;;;;;;;;;;4999606;28;20022;-70
2023/10/24 03:52:37;;;;;;;8.88;4.03;;;;;;;;;;5016899;28;20037;-70
2023/10/24 03:55:03;;;;;;;8.98;4.50;;;;;;;;;;5017216;28;20025;-70
2023/10/24 03:57:28;;;;;;;12.98;4.82;;;;;;;;;;5017223;28;20036;-70
2023/10/24 03:59:53;;;;;;;10.00;4.50;;;;;;;;;;4999265;28;20036;-71
2023/10/24 04:02:18;;;;;;;8.85;4.13;;;;;;;;;;5016704;28;20049;-71
2023/10/24 04:04:44;;;;;;;8.73;4.55;;;;;;;;;;5016718;28;20100;-71
2023/10/24 04:07:09;;;;;;;8.77;4.47;;;;;;;;;;5016987;28;20493;-70
2023/10/24 04:09:34;;;;;;;8.38;4.38;;;;;;;;;;5016807;28;20033;-71
2023/10/24 04:12:02;;;;;;;7.45;3.92;;;;;;;;;;5017089;28;20038;-70
2023/10/24 04:14:27;;;;;;;8.23;4.28;;;;;;;;;;5016253;28;20475;-71
2023/10/24 04:16:53;;;;;;;7.55;3.75;;;;;;;;;;5016833;28;20030;-70
2023/10/24 04:19:18;;;;;;;14.18;5.22;;;;;;;;;;5017040;28;20029;-70
2023/10/24 04:21:43;;;;;;;11.55;5.30;;;;;;;;;;5016468;28;20029;-71
2023/10/24 04:24:09;;;;;;;6.68;3.70;;;;;;;;;;5016732;28;20546;-70
2023/10/24 04:26:35;;;;;;;12.73;4.22;;;;;;;;;;4998848;28;20026;-70
2023/10/24 04:29:00;;;;;;;8.40;3.88;;;;;;;;;;5016724;28;20037;-71
2023/10/24 04:31:26;;;;;;;10.35;3.95;;;;;;;;;;5016215;28;20025;-71
2023/10/24 04:33:51;;;;;;;9.70;4.05;;;;;;;;;;5016518;28;20028;-70
2023/10/24 04:36:16;;;;;;;6.80;3.50;;;;;;;;;;5015839;28;20501;-70
2023/10/24 04:38:42;;;;;;;10.70;5.45;;;;;;;;;;5016407;28;20029;-70
2023/10/24 04:41:07;;;;;;;6.57;2.97;;;;;;;;;;4999044;28;20026;-70
2023/10/24 04:43:35;;;;;;;7.60;3.50;;;;;;;;;;5016044;28;20552;-71
2023/10/24 04:46:01;;;;;;;8.38;3.53;;;;;;;;;;5016382;28;20026;-70
2023/10/24 04:48:26;;;;;;;10.07;4.18;;;;;;;;;;5016226;28;20033;-71
2023/10/24 04:50:52;;;;;;;9.25;3.55;;;;;;;;;;5016348;28;20109;-70
2023/10/24 04:53:17;;;;;;;7.85;3.67;;;;;;;;;;5016185;28;20029;-70
2023/10/24 04:55:42;;;;;;;7.15;3.13;;;;;;;;;;4998680;28;20018;-70
2023/10/24 04:58:08;;;;;;;8.48;3.42;;;;;;;;;;4997974;28;20079;-71
2023/10/24 05:00:33;;;;;;;8.00;4.30;;;;;;;;;;4998547;28;20072;-70
2023/10/24 05:02:58;;;;;;;11.60;3.72;;;;;;;;;;4998953;28;20021;-70
2023/10/24 05:05:24;;;;;;;11.27;4.68;;;;;;;;;;5015986;28;20391;-70
2023/10/24 05:07:49;;;;;;;7.57;4.18;;;;;;;;;;4998123;28;20068;-71
2023/10/24 05:10:15;;;;;;;9.45;3.60;;;;;;;;;;5016227;28;20022;-70
2023/10/24 05:12:40;;;;;;;6.45;3.60;;;;;;;;;;4998509;28;20033;-70
2023/10/24 05:15:05;;;;;;;13.77;4.78;;;;;;;;;;5016032;28;20030;-70
2023/10/24 05:17:31;;;;;;;7.05;3.97;;;;;;;;;;4997407;28;20026;-71
2023/10/24 05:20:02;;;;;;;12.18;3.95;;;;;;;;;;5015821;28;20064;-70
2023/10/24 05:22:27;;;;;;;7.40;3.60;;;;;;;;;;5015913;28;20028;-70
2023/10/24 05:24:53;;;;;;;7.63;3.67;;;;;;;;;;5015348;28;20034;-70
2023/10/24 05:27:18;;;;;;;9.98;4.00;;;;;;;;;;5015120;28;20490;-71
2023/10/24 05:29:43;;;;;;;9.10;4.43;;;;;;;;;;5015640;28;20126;-70
2023/10/24 05:32:09;;;;;;;7.53;4.07;;;;;;;;;;5015438;28;20025;-70
2023/10/24 05:34:34;;;;;;;13.27;5.28;;;;;;;;;;4997917;28;20434;-70
2023/10/24 05:36:59;;;;;;;9.93;4.72;;;;;;;;;;5015554;28;20455;-70
2023/10/24 05:39:26;;;;;;;11.07;4.45;;;;;;;;;;5015411;28;20030;-70
2023/10/24 05:41:52;;;;;;;12.65;4.28;;;;;;;;;;5014741;28;20033;-71
2023/10/24 05:44:17;;;;;;;7.95;4.43;;;;;;;;;;4997663;28;20077;-70
2023/10/24 05:46:42;;;;;;;9.00;4.18;;;;;;;;;;4994452;28;20025;-71
2023/10/24 05:49:08;;;;;;;12.52;6.15;;;;;;;;;;5014114;28;20375;-71
2023/10/24 05:51:33;;;;;;;9.63;5.05;;;;;;;;;;4997654;28;20041;-71
2023/10/24 05:53:59;;;;;;;12.02;4.30;;;;;;;;;;4997522;28;20052;-70
2023/10/24 05:56:24;;;;;;;12.10;4.30;;;;;;;;;;5014258;28;20509;-71
2023/10/24 05:58:50;;;;;;;9.38;5.25;;;;;;;;;;5014929;28;20113;-71
2023/10/24 06:01:15;;;;;;;11.25;5.72;;;;;;;;;;4997473;28;20060;-70
2023/10/24 06:03:41;;;;;;;12.85;4.43;;;;;;;;;;5015020;28;20022;-71
2023/10/24 06:06:07;;;;;;;13.90;4.35;;;;;;;;;;5012594;28;20030;-71
2023/10/24 06:08:32;;;;;;;13.10;4.95;;;;;;;;;;4997008;28;20021;-71
2023/10/24 06:11:00;;;;;;;9.45;4.78;;;;;;;;;;5014423;28;20080;-71
2023/10/24 06:13:25;;;;;;;7.80;4.70;;;;;;;;;;4996982;28;20430;-71
2023/10/24 06:15:51;;;;;;;9.82;5.35;;;;;;;;;;4996655;28;20024;-71
2023/10/24 06:18:17;;;;;;;9.80;4.70;;;;;;;;;;4978067;28;20052;-71
2023/10/24 06:20:42;;;;;;;14.95;5.43;;;;;;;;;;4977453;28;20101;-71
2023/10/24 06:23:08;;;;;;;12.30;5.38;;;;;;;;;;4994964;28;20057;-70
2023/10/24 06:25:40;;;;;;;13.25;5.68;;;;;;;;;;4994390;28;20466;-71
2023/10/24 06:28:06;;;;;;;15.27;6.13;;;;;;;;;;4977534;28;20391;-71
2023/10/24 06:30:32;;;;;;;13.25;5.95;;;;;;;;;;5000462;28;20018;-71
2023/10/24 06:32:58;;;;;;;13.52;5.75;;;;;;;;;;5014493;28;20017;-71
2023/10/24 06:35:23;;;;;;;12.40;5.60;;;;;;;;;;5012003;28;20029;-71
2023/10/24 06:37:48;;;;;;;12.98;5.57;;;;;;;;;;4980518;28;20168;-71
2023/10/24 06:40:14;;;;;;;12.23;5.50;;;;;;;;;;5013312;28;20119;-71
2023/10/24 06:42:39;;;;;;;11.13;6.35;;;;;;;;;;5014163;28;20026;-70
2023/10/24 06:45:08;;;;;;;14.60;6.43;;;;;;;;;;5014128;28;20030;-71
2023/10/24 06:47:33;;;;;;;13.20;6.40;;;;;;;;;;4996324;28;20052;-71
2023/10/24 06:49:59;;;;;;;14.15;6.47;;;;;;;;;;4996461;28;20633;-71
2023/10/24 06:52:24;;;;;;;13.02;6.50;;;;;;;;;;5010651;28;20030;-71
2023/10/24 06:54:49;;;;;;;17.58;7.75;;;;;;;;;;4996077;28;20026;-71
2023/10/24 06:57:15;;;;;;;17.23;6.82;;;;;;;;;;4995846;28;20025;-71
2023/10/24 06:59:40;;;;;;;19.33;6.60;;;;;;;;;;5011410;28;20030;-71
2023/10/24 07:02:05;;;;;;;15.55;6.80;;;;;;;;;;4997981;28;20026;-71
2023/10/24 07:04:30;;;;;;;17.35;6.70;;;;;;;;;;4993858;28;20126;-71
2023/10/24 07:06:56;;;;;;;16.65;7.18;;;;;;;;;;4993772;28;20473;-71
2023/10/24 07:09:21;;;;;;;15.15;7.20;;;;;;;;;;4994295;28;20072;-70
2023/10/24 07:11:46;;;;;;;19.45;7.35;;;;;;;;;;4977421;28;20049;-71
2023/10/24 07:14:12;;;;;;;16.08;6.88;;;;;;;;;;4994306;28;20027;-71
2023/10/24 07:16:37;;;;;;;17.63;7.72;;;;;;;;;;4994470;28;20117;-71
2023/10/24 07:19:02;;;;;;;13.00;7.20;;;;;;;;;;5013659;28;20017;-71
2023/10/24 07:21:28;;;;;;;21.38;8.32;;;;;;;;;;5013016;28;20406;-72
2023/10/24 07:23:54;;;;;;;16.83;8.05;;;;;;;;;;4996086;28;20030;-71
2023/10/24 07:26:20;;;;;;;16.25;8.32;;;;;;;;;;5022705;23;20423;-72
2023/10/24 07:28:45;;;;;;;14.73;6.97;;;;;;;;;;4956390;28;20023;-72
2023/10/24 07:31:11;;;;;;;21.45;7.65;;;;;;;;;;4973552;28;20038;-72
2023/10/24 07:33:36;;;;;;;18.15;8.23;;;;;;;;;;4980398;28;20512;-72
2023/10/24 07:36:08;;;;;;;14.55;6.63;;;;;;;;;;4973247;28;20058;-72
2023/10/24 07:38:34;;;;;;;14.35;7.30;;;;;;;;;;4963666;28;20510;-72
2023/10/24 07:40:59;;;;;;;14.57;7.15;;;;;;;;;;4993015;28;20037;-72
2023/10/24 07:43:25;;;;;;;22.92;7.15;;;;;;;;;;4975445;28;20018;-72
2023/10/24 07:45:50;;;;;;;17.88;7.20;;;;;;;;;;4992589;28;20034;-72
2023/10/24 07:48:16;;;;;;;16.58;7.05;;;;;;;;;;4977019;28;20057;-72
2023/10/24 07:50:51;;;;;;;16.90;6.70;;;;;;;;;;4955934;28;20030;-72
2023/10/24 07:53:18;;;;;;;12.75;6.65;;;;;;;;;;4975333;28;20212;-72
2023/10/24 07:55:43;;;;;;;13.73;6.60;;;;;;;;;;4953578;28;20034;-72
2023/10/24 07:58:09;;;;;;;14.52;6.13;;;;;;;;;;4955454;28;20165;-72
2023/10/24 08:00:34;;;;;;;15.43;7.13;;;;;;;;;;4973312;28;20033;-72
2023/10/24 08:02:59;;;;;;;12.65;5.80;;;;;;;;;;4967271;28;20030;-72
2023/10/24 08:05:25;;;;;;;12.15;6.20;;;;;;;;;;4985772;28;20058;-72
2023/10/24 08:07:50;;;;;;;9.48;5.07;;;;;;;;;;4951975;28;20018;-72
2023/10/24 08:10:16;;;;;;;14.90;6.00;;;;;;;;;;4975118;28;20038;-72
2023/10/24 08:12:41;;;;;;;11.48;5.75;;;;;;;;;;4978895;28;20034;-72
2023/10/24 08:15:07;;;;;;;12.07;5.10;;;;;;;;;;4996278;28;20479;-72
2023/10/24 08:17:32;;;;;;;10.35;5.07;;;;;;;;;;4995460;28;20034;-72
2023/10/24 08:19:58;;;;;;;11.35;6.15;;;;;;;;;;4996156;28;20044;-72
2023/10/24 08:22:23;;;;;;;10.90;5.40;;;;;;;;;;4978617;28;20080;-71
2023/10/24 08:24:49;;;;;;;12.20;5.35;;;;;;;;;;4994981;28;20022;-71
2023/10/24 08:27:14;;;;;;;16.38;6.47;;;;;;;;;;4978342;28;20518;-72
2023/10/24 08:29:39;;;;;;;11.52;5.95;;;;;;;;;;4978048;28;20029;-71
2023/10/24 08:32:05;;;;;;;10.82;6.47;;;;;;;;;;4978230;28;20088;-70
2023/10/24 08:34:30;;;;;;;12.73;5.70;;;;;;;;;;4995947;28;20033;-70
2023/10/24 08:36:55;;;;;;;13.00;5.82;;;;;;;;;;4995333;28;20069;-70
2023/10/24 08:39:23;;;;;;;14.60;6.88;;;;;;;;;;4995402;28;20019;-70
2023/10/24 08:41:51;;;;;;;14.00;5.90;;;;;;;;;;4995468;28;20023;-71
2023/10/24 08:44:17;;;;;;;10.98;6.70;;;;;;;;;;4978098;28;20109;-71
2023/10/24 08:46:43;;;;;;;10.85;5.63;;;;;;;;;;4978093;28;20073;-71
2023/10/24 08:49:09;;;;;;;13.05;7.00;;;;;;;;;;4981493;28;20042;-71
2023/10/24 08:51:35;;;;;;;19.20;8.27;;;;;;;;;;4959028;28;20381;-71
2023/10/24 08:54:00;;;;;;;15.45;5.80;;;;;;;;;;4977868;28;20062;-71
2023/10/24 08:56:26;;;;;;;10.82;6.32;;;;;;;;;;4977671;28;20037;-71
2023/10/24 08:58:52;;;;;;;12.02;6.13;;;;;;;;;;4995206;28;20022;-71
2023/10/24 09:01:17;;;;;;;14.32;6.63;;;;;;;;;;4995261;28;20499;-71
2023/10/24 09:03:43;;;;;;;19.10;7.05;;;;;;;;;;4977334;28;20034;-71
2023/10/24 09:06:08;;;;;;;13.55;6.75;;;;;;;;;;4978026;28;20177;-71
2023/10/24 09:08:34;;;;;;;13.02;6.53;;;;;;;;;;4994980;28;20058;-71
2023/10/24 09:10:59;;;;;;;11.73;6.22;;;;;;;;;;4977578;28;20026;-71
2023/10/24 09:13:25;;;;;;;13.82;7.20;;;;;;;;;;4994437;28;20026;-71
2023/10/24 09:16:08;;;;;;;14.45;7.18;;;;;;;;;;4977543;28;20096;-71
2023/10/24 09:18:35;;;;;;;14.10;6.97;;;;;;;;;;4976629;28;20042;-71
2023/10/24 09:21:01;;;;;;;21.58;7.15;;;;;;;;;;4977419;28;20026;-71
2023/10/24 09:23:26;;;;;;;12.57;6.88;;;;;;;;;;4988668;28;20105;-71
2023/10/24 09:25:53;;;;;;;14.70;6.97;;;;;;;;;;4994719;28;20061;-71
2023/10/24 09:28:19;;;;;;;14.02;6.25;;;;;;;;;;4977419;28;20069;-71
2023/10/24 09:30:45;;;;;;;13.80;7.28;;;;;;;;;;4994737;28;20034;-71
2023/10/24 09:33:10;;;;;;;14.07;6.75;;;;;;;;;;4977117;28;20109;-71
2023/10/24 09:35:38;;;;;;;15.32;7.43;;;;;;;;;;4991347;28;20018;-71
2023/10/24 09:38:07;;;;;;;15.38;7.50;;;;;;;;;;4994313;28;20031;-71
2023/10/24 09:40:37;;;;;;;14.80;6.90;;;;;;;;;;4974919;28;20030;-72
2023/10/24 09:43:21;;;;;;;16.38;7.68;;;;;;;;;;4973738;28;20062;-71
2023/10/24 09:45:46;;;;;;;16.83;7.50;;;;;;;;;;4957822;28;20105;-71
2023/10/24 09:48:13;;;;;;;12.40;6.90;;;;;;;;;;4977132;28;20167;-71
2023/10/24 09:50:41;;;;;;;15.13;6.97;;;;;;;;;;4976832;28;20032;-71
2023/10/24 09:53:07;;;;;;;14.38;7.57;;;;;;;;;;4971489;28;20386;-71
2023/10/24 09:55:34;;;;;;;12.43;6.85;;;;;;;;;;4956706;28;20031;-71
2023/10/24 09:57:59;;;;;;;16.70;7.57;;;;;;;;;;4959368;28;20046;-71
2023/10/24 10:00:26;;;;;;;13.52;6.80;;;;;;;;;;4958000;28;20057;-71
2023/10/24 10:02:52;;;;;;;13.65;6.93;;;;;;;;;;4973227;28;20026;-71
2023/10/24 10:05:17;;;;;;;17.15;7.72;;;;;;;;;;4982740;28;20098;-71
2023/10/24 10:07:47;;;;;;;15.45;8.30;;;;;;;;;;4979074;28;20058;-71
2023/10/24 10:10:13;;;;;;;13.77;7.78;;;;;;;;;;4985304;28;20041;-70
2023/10/24 10:12:39;;;;;;;18.60;8.35;;;;;;;;;;4988362;28;20026;-71
2023/10/24 10:15:36;;;;;;;17.50;8.68;;;;;;;;;;4969100;28;20034;-71
2023/10/24 10:18:23;;;;;;;17.10;8.90;;;;;;;;;;4989189;28;20487;-71
2023/10/24 10:21:24;;;;;;;16.70;7.95;;;;;;;;;;4942262;28;20137;-71
2023/10/24 10:24:17;;;;;;;22.05;8.82;;;;;;;;;;4967269;28;20023;-71
2023/10/24 10:27:03;;;;;;;15.02;8.93;;;;;;;;;;4982099;28;20034;-71
2023/10/24 10:29:54;;;;;;;20.63;8.68;;;;;;;;;;4959107;28;20109;-71
2023/10/24 10:32:26;;;;;;;17.00;9.02;;;;;;;;;;4934567;28;20093;-71
2023/10/24 10:34:51;;;;;;;20.98;11.27;;;;;;;;;;4967791;28;20425;-71
2023/10/24 10:37:17;;;;;;;17.55;8.75;;;;;;;;;;4985774;28;20145;-71
2023/10/24 10:40:00;;;;;;;14.73;8.80;;;;;;;;;;4980658;28;20027;-71
2023/10/24 10:42:45;;;;;;;17.05;9.20;;;;;;;;;;4971863;28;20056;-71
2023/10/24 10:45:32;;;;;;;16.08;9.65;;;;;;;;;;4989340;28;20023;-71
2023/10/24 10:48:06;;;;;;;15.77;9.07;;;;;;;;;;4986112;28;20026;-73
2023/10/24 10:50:33;;;;;;;22.02;9.82;;;;;;;;;;4991829;28;20019;-73
2023/10/24 10:53:35;;;;;;;16.73;9.48;;;;;;;;;;4973418;28;20031;-71
2023/10/24 10:56:12;;;;;;;14.43;9.52;;;;;;;;;;4901518;28;20549;-72
2023/10/24 10:58:40;;;;;;;21.50;9.60;;;;;;;;;;4987757;28;20048;-73
2023/10/24 11:01:13;;;;;;;20.98;10.50;;;;;;;;;;4988246;28;20026;-73
2023/10/24 11:03:43;;;;;;;17.27;9.27;;;;;;;;;;4970807;28;20035;-74
2023/10/24 11:06:09;;;;;;;23.10;10.48;;;;;;;;;;4965865;28;20022;-73
2023/10/24 11:08:34;;;;;;;19.10;10.10;;;;;;;;;;4985297;28;20109;-73
2023/10/24 11:11:02;;;;;;;18.95;9.20;;;;;;;;;;4980463;28;20118;-72
2023/10/24 11:13:43;;;;;;;18.35;11.20;;;;;;;;;;4964788;28;20506;-72
2023/10/24 11:16:10;;;;;;;20.35;10.15;;;;;;;;;;4975066;28;20033;-71
2023/10/24 11:18:36;;;;;;;16.23;10.05;;;;;;;;;;4975211;28;20030;-72
2023/10/24 11:21:03;;;;;;;19.88;10.43;;;;;;;;;;4973865;28;20045;-71
2023/10/24 11:23:29;;;;;;;21.58;9.57;;;;;;;;;;4982953;28;20476;-72
2023/10/24 11:25:55;;;;;;;22.27;10.60;;;;;;;;;;4963287;28;20042;-72
2023/10/24 11:28:20;;;;;;;23.88;10.48;;;;;;;;;;4964369;28;20026;-71
2023/10/24 11:30:46;;;;;;;18.25;9.85;;;;;;;;;;4974487;28;20077;-71
2023/10/24 11:33:12;;;;;;;18.90;10.50;;;;;;;;;;4973974;28;20053;-70
2023/10/24 11:35:37;;;;;;;17.60;10.85;;;;;;;;;;4972414;28;20398;-71
2023/10/24 11:38:02;;;;;;;20.23;10.20;;;;;;;;;;4979501;28;20247;-72
2023/10/24 11:40:28;;;;;;;19.55;12.07;;;;;;;;;;4991630;28;20427;-71
2023/10/24 11:43:05;;;;;;;19.67;10.38;;;;;;;;;;4991751;28;20037;-71
2023/10/24 11:45:30;;;;;;;19.80;11.98;;;;;;;;;;4976447;28;20394;-71
2023/10/24 11:47:56;;;;;;;17.45;10.85;;;;;;;;;;4993993;28;20018;-71
2023/10/24 11:50:44;;;;;;;18.63;10.68;;;;;;;;;;4972705;28;20152;-71
2023/10/24 11:53:19;;;;;;;17.67;11.30;;;;;;;;;;4977863;28;20446;-71
2023/10/24 11:55:46;;;;;;;21.00;10.52;;;;;;;;;;4995265;28;20527;-70
2023/10/24 11:58:12;;;;;;;19.45;10.82;;;;;;;;;;4977284;28;20113;-72
2023/10/24 12:00:40;;;;;;;17.83;10.65;;;;;;;;;;4994340;28;20023;-71
2023/10/24 12:03:06;;;;;;;17.17;10.30;;;;;;;;;;4978144;28;20029;-71
2023/10/24 12:05:32;;;;;;;20.38;9.68;;;;;;;;;;4977267;28;20101;-71
2023/10/24 12:07:58;;;;;;;18.23;9.75;;;;;;;;;;4994195;28;20033;-71
2023/10/24 12:10:23;;;;;;;18.00;10.02;;;;;;;;;;4995431;28;20026;-69
2023/10/24 12:12:48;;;;;;;18.55;9.60;;;;;;;;;;4990755;28;20034;-71
2023/10/24 12:15:15;;;;;;;19.52;10.18;;;;;;;;;;4992951;28;20092;-71
2023/10/24 12:17:44;;;;;;;17.50;9.75;;;;;;;;;;4974320;28;20201;-71
2023/10/24 12:20:11;;;;;;;16.65;9.85;;;;;;;;;;4958303;28;20031;-71
2023/10/24 12:22:37;;;;;;;20.08;10.25;;;;;;;;;;4945876;28;20073;-72
2023/10/24 12:25:02;;;;;;;19.10;10.95;;;;;;;;;;4975448;28;20175;-71
2023/10/24 12:27:27;;;;;;;14.55;8.20;;;;;;;;;;4979942;28;20117;-71
2023/10/24 12:29:53;;;;;;;16.23;8.57;;;;;;;;;;4976147;28;20263;-71
2023/10/24 12:32:18;;;;;;;12.73;8.57;;;;;;;;;;4995058;28;20037;-72
2023/10/24 12:34:43;;;;;;;18.15;8.50;;;;;;;;;;4992369;28;20030;-71
2023/10/24 12:37:09;;;;;;;14.52;8.65;;;;;;;;;;4990096;28;20118;-71
2023/10/24 12:39:34;;;;;;;14.13;7.95;;;;;;;;;;4994416;28;20498;-71
2023/10/24 12:41:59;;;;;;;14.02;9.15;;;;;;;;;;4992434;28;20022;-72
2023/10/24 12:44:24;;;;;;;14.93;9.05;;;;;;;;;;4994806;28;20430;-71
2023/10/24 12:46:50;;;;;;;15.55;8.60;;;;;;;;;;4993976;28;20041;-71
2023/10/24 12:49:16;;;;;;;12.52;7.95;;;;;;;;;;4992941;28;20057;-71
2023/10/24 12:51:42;;;;;;;13.23;8.23;;;;;;;;;;4976988;28;20075;-71
2023/10/24 12:54:07;;;;;;;16.55;9.05;;;;;;;;;;4994323;28;20022;-71
2023/10/24 12:56:33;;;;;;;15.80;8.00;;;;;;;;;;4992896;28;20030;-71
2023/10/24 12:58:59;;;;;;;13.57;8.48;;;;;;;;;;4976718;28;20109;-71
2023/10/24 13:01:24;;;;;;;14.20;8.13;;;;;;;;;;4994261;28;20034;-71
2023/10/24 13:03:51;;;;;;;15.85;8.05;;;;;;;;;;4994352;28;20033;-71
2023/10/24 13:06:16;;;;;;;12.40;8.25;;;;;;;;;;4993790;28;20026;-71
2023/10/24 13:08:41;;;;;;;13.40;8.40;;;;;;;;;;4976926;28;20097;-71
2023/10/24 13:11:06;;;;;;;15.98;7.72;;;;;;;;;;4993383;28;20030;-71
2023/10/24 13:13:32;;;;;;;13.95;7.78;;;;;;;;;;4984536;28;20093;-71
2023/10/24 13:15:57;;;;;;;14.15;7.88;;;;;;;;;;4974145;28;20038;-71
2023/10/24 13:18:22;;;;;;;13.95;8.45;;;;;;;;;;4974462;28;20027;-71
2023/10/24 13:20:48;;;;;;;14.73;8.82;;;;;;;;;;4976365;28;20426;-71
2023/10/24 13:23:13;;;;;;;11.13;7.32;;;;;;;;;;4993101;28;20033;-71
2023/10/24 13:25:38;;;;;;;17.00;8.73;;;;;;;;;;4993387;28;20027;-71
2023/10/24 13:28:04;;;;;;;14.88;8.20;;;;;;;;;;4987943;28;20026;-71
2023/10/24 13:30:31;;;;;;;14.70;8.77;;;;;;;;;;5030993;23;20184;-74
2023/10/24 13:32:57;;;;;;;12.70;7.72;;;;;;;;;;5013976;28;20068;-74
2023/10/24 13:35:22;;;;;;;14.13;7.95;;;;;;;;;;5029130;28;20076;-73
2023/10/24 13:37:48;;;;;;;15.93;8.02;;;;;;;;;;5000840;28;20105;-73
2023/10/24 13:40:13;;;;;;;12.88;8.15;;;;;;;;;;5013271;28;20032;-74
2023/10/24 13:42:38;;;;;;;15.52;9.02;;;;;;;;;;5013500;28;20021;-73
2023/10/24 13:45:04;;;;;;;16.30;9.52;;;;;;;;;;5014059;28;20036;-74
2023/10/24 13:47:30;;;;;;;16.58;9.20;;;;;;;;;;5013775;28;20534;-74
2023/10/24 13:49:55;;;;;;;15.50;9.00;;;;;;;;;;4995890;28;20117;-73
2023/10/24 13:52:20;;;;;;;16.80;9.73;;;;;;;;;;5013457;28;20028;-74
2023/10/24 13:54:46;;;;;;;19.50;9.75;;;;;;;;;;5013378;28;20026;-73
2023/10/24 13:57:12;;;;;;;18.60;9.10;;;;;;;;;;4995945;28;20030;-74
2023/10/24 13:59:37;;;;;;;16.85;8.95;;;;;;;;;;5013450;28;20137;-73
2023/10/24 14:02:02;;;;;;;15.50;8.60;;;;;;;;;;5012931;28;20109;-73
2023/10/24 14:04:28;;;;;;;18.60;10.57;;;;;;;;;;5013734;28;20026;-74
2023/10/24 14:06:54;;;;;;;16.95;9.18;;;;;;;;;;5012310;28;20026;-73
2023/10/24 14:09:20;;;;;;;17.05;9.93;;;;;;;;;;4995331;28;20029;-72
2023/10/24 14:11:45;;;;;;;20.67;12.07;;;;;;;;;;4996250;28;20390;-73
2023/10/24 14:14:11;;;;;;;15.57;9.07;;;;;;;;;;5013103;28;20030;-75
2023/10/24 14:16:37;;;;;;;19.25;9.85;;;;;;;;;;4975818;28;20034;-73
2023/10/24 14:19:02;;;;;;;21.45;10.73;;;;;;;;;;4956792;28;20129;-73
2023/10/24 14:21:27;;;;;;;21.05;10.68;;;;;;;;;;4981179;28;20039;-73
2023/10/24 14:23:53;;;;;;;21.00;10.35;;;;;;;;;;4995130;28;20079;-73
2023/10/24 14:26:18;;;;;;;22.30;10.50;;;;;;;;;;4998580;28;20081;-73
2023/10/24 14:28:43;;;;;;;18.80;10.70;;;;;;;;;;4974011;28;20046;-72
2023/10/24 14:31:08;;;;;;;20.65;10.88;;;;;;;;;;4983757;28;20022;-73